White Haven, Pennsylvania
Current Conditions -  °F | °C
As of 11:55 AM on Monday 22 Dec 2014 (Local Time) from KHZL Reporting Station
Broken Clouds Broken Clouds  
Wind Chill: 30°   Ceiling: 1200
Heat Index: 36°   Visibility: 10mi
Dew Point: 28°   Wind: 7mph
Humidity: 75%   Direction: 120°ESE
Pressure: 30.21"   Gusts: NA
Location:  41.06°N, 75.77°W
Report Text: KHZL 221655Z AUTO 12006KT 060V140 10SM BKN012 02/M02 A3021 RMK AO2
Loading
Personal Weather Stations






























Interactive Weather Map New forecast layout! Learn more

10-Day Weather Forecast

Advertisements
Track Severe Weather on mobile